createdAt,value
2023-05-24T02:32:13.780Z,427.00
2023-05-24T02:33:13.245Z,431.00
2023-05-24T02:34:14.118Z,433.00
2023-05-24T02:35:15.052Z,426.00
2023-05-24T02:36:15.957Z,428.00
2023-05-24T02:37:16.865Z,428.00
2023-05-24T02:38:17.756Z,434.00
2023-05-24T02:39:18.680Z,437.00
2023-05-24T02:40:19.599Z,438.00
2023-05-24T02:41:20.493Z,439.00
2023-05-24T02:42:21.408Z,436.00
2023-05-24T02:43:22.303Z,432.00
2023-05-24T02:44:23.242Z,429.00
2023-05-24T02:45:24.396Z,430.00
2023-05-24T02:46:25.318Z,433.00
2023-05-24T02:47:25.361Z,434.00
2023-05-24T02:48:26.309Z,432.00
2023-05-24T02:49:27.794Z,434.00
2023-05-24T02:50:27.726Z,434.00
2023-05-24T02:51:28.618Z,432.00
2023-05-24T02:52:29.547Z,428.00
2023-05-24T02:53:30.216Z,427.00
2023-05-24T02:54:31.115Z,426.00
2023-05-24T02:55:32.037Z,423.00
2023-05-24T02:56:33.793Z,427.00
2023-05-24T02:57:33.686Z,428.00
2023-05-24T02:58:34.622Z,426.00
2023-05-24T02:59:38.295Z,428.00
2023-05-24T03:00:36.209Z,429.00
2023-05-24T03:01:38.803Z,430.00
2023-05-24T03:02:37.859Z,431.00
2023-05-24T03:03:40.436Z,432.00
2023-05-24T03:04:38.856Z,432.00
2023-05-24T03:05:39.779Z,431.00
2023-05-24T03:06:40.668Z,430.00
2023-05-24T03:07:41.619Z,431.00
2023-05-24T03:08:42.506Z,429.00
2023-05-24T03:09:43.435Z,429.00
2023-05-24T03:10:44.579Z,429.00
2023-05-24T03:11:45.099Z,428.00
2023-05-24T03:12:46.026Z,431.00
2023-05-24T03:13:46.906Z,431.00
2023-05-24T03:14:47.816Z,434.00
2023-05-24T03:15:48.915Z,431.00
2023-05-24T03:16:49.333Z,429.00
2023-05-24T03:17:50.273Z,426.00
2023-05-24T03:18:51.142Z,428.00
2023-05-24T03:19:52.891Z,430.00
2023-05-24T03:20:52.864Z,428.00
2023-05-24T03:21:53.813Z,428.00
2023-05-24T03:22:54.712Z,429.00
2023-05-24T03:23:56.286Z,430.00
2023-05-24T03:24:56.201Z,428.00
2023-05-24T03:25:57.264Z,428.00
2023-05-24T03:26:58.389Z,425.00
2023-05-24T03:27:58.481Z,422.00
2023-05-24T03:28:58.849Z,424.00
2023-05-24T03:29:59.739Z,427.00
2023-05-24T03:31:00.689Z,427.00
2023-05-24T03:32:01.703Z,429.00
2023-05-24T03:33:02.304Z,428.00
2023-05-24T03:34:02.724Z,427.00
2023-05-24T03:35:03.653Z,428.00
2023-05-24T03:36:04.581Z,425.00
2023-05-24T03:37:05.509Z,428.00
2023-05-24T03:38:06.410Z,427.00
2023-05-24T03:39:09.324Z,427.00
2023-05-24T03:40:08.800Z,431.00
2023-05-24T03:41:09.198Z,432.00
2023-05-24T03:42:10.789Z,431.00
2023-05-24T03:43:10.707Z,432.00
2023-05-24T03:44:11.612Z,434.00
2023-05-24T03:45:12.546Z,432.00
2023-05-24T03:46:15.338Z,430.00
2023-05-24T03:47:14.231Z,426.00
2023-05-24T03:48:15.158Z,424.00
2023-05-24T03:49:16.075Z,425.00
2023-05-24T03:50:16.986Z,426.00
2023-05-24T03:51:17.898Z,425.00
2023-05-24T03:52:18.859Z,426.00
2023-05-24T03:53:22.209Z,429.00
2023-05-24T03:54:20.411Z,428.00
2023-05-24T03:55:21.334Z,429.00
2023-05-24T03:56:22.800Z,427.00
2023-05-24T03:57:24.806Z,429.00
2023-05-24T03:58:23.746Z,425.00
2023-05-24T03:59:24.671Z,425.00
2023-05-24T04:00:26.322Z,427.00
2023-05-24T04:01:34.019Z,429.00
2023-05-24T04:02:28.159Z,427.00
2023-05-24T04:03:28.220Z,424.00
2023-05-24T04:04:28.667Z,427.00
2023-05-24T04:05:29.538Z,420.00
2023-05-24T04:06:30.645Z,422.00
2023-05-24T04:07:31.427Z,426.00
2023-05-24T04:08:32.391Z,427.00
2023-05-24T04:09:33.315Z,427.00
2023-05-24T04:10:34.231Z,424.00
2023-05-24T04:11:35.124Z,428.00
2023-05-24T04:12:36.797Z,429.00
2023-05-24T04:13:36.806Z,432.00
2023-05-24T04:14:37.686Z,434.00
2023-05-24T04:15:38.588Z,432.00
2023-05-24T04:16:39.530Z,433.00
2023-05-24T04:17:40.728Z,431.00
2023-05-24T04:18:41.341Z,431.00
2023-05-24T04:19:41.723Z,433.00
2023-05-24T04:20:42.892Z,435.00
2023-05-24T04:21:43.400Z,436.00
2023-05-24T04:22:44.334Z,434.00
2023-05-24T04:23:45.246Z,432.00
2023-05-24T04:24:47.859Z,434.00
2023-05-24T04:25:46.718Z,427.00
2023-05-24T04:26:47.658Z,427.00
2023-05-24T04:27:48.547Z,427.00
2023-05-24T04:28:49.445Z,428.00
2023-05-24T04:29:50.355Z,430.00
2023-05-24T04:30:51.265Z,431.00
2023-05-24T04:31:54.216Z,433.00
2023-05-24T04:32:53.131Z,432.00
2023-05-24T04:33:54.135Z,432.00
2023-05-24T04:34:55.298Z,430.00
2023-05-24T04:35:55.251Z,432.00
2023-05-24T04:36:56.196Z,432.00
2023-05-24T04:37:57.096Z,433.00
2023-05-24T04:38:58.002Z,432.00
2023-05-24T04:39:58.942Z,431.00
2023-05-24T04:40:59.880Z,434.00
2023-05-24T04:42:00.786Z,436.00
2023-05-24T04:43:01.705Z,434.00
2023-05-24T04:44:02.597Z,430.00
2023-05-24T04:45:03.554Z,433.00
2023-05-24T04:46:05.410Z,430.00
2023-05-24T04:47:05.608Z,429.00
2023-05-24T04:48:06.835Z,429.00
2023-05-24T04:49:06.826Z,428.00
2023-05-24T04:50:07.274Z,432.00
2023-05-24T04:51:08.183Z,434.00
2023-05-24T04:52:09.101Z,435.00
2023-05-24T04:53:09.993Z,430.00
2023-05-24T04:54:10.880Z,426.00
2023-05-24T04:55:11.818Z,425.00
2023-05-24T04:56:12.712Z,423.00
2023-05-24T04:57:13.644Z,426.00
2023-05-24T04:58:14.531Z,426.00
2023-05-24T04:59:15.465Z,426.00
2023-05-24T05:00:16.399Z,425.00
2023-05-24T05:01:17.402Z,425.00
2023-05-24T05:02:17.939Z,420.00
2023-05-24T05:03:18.480Z,418.00
2023-05-24T05:04:18.962Z,419.00
2023-05-24T05:05:19.852Z,420.00
2023-05-24T05:06:21.301Z,420.00
2023-05-24T05:07:21.730Z,424.00
2023-05-24T05:08:23.005Z,426.00
2023-05-24T05:09:24.309Z,427.00
2023-05-24T05:10:24.270Z,426.00
2023-05-24T05:11:25.160Z,424.00
2023-05-24T05:12:26.289Z,421.00
2023-05-24T05:13:27.531Z,427.00
2023-05-24T05:14:27.460Z,431.00
2023-05-24T05:15:28.372Z,428.00
2023-05-24T05:16:29.363Z,426.00
2023-05-24T05:17:30.868Z,428.00
2023-05-24T05:18:30.774Z,428.00
2023-05-24T05:19:31.699Z,428.00
2023-05-24T05:20:32.653Z,430.00
2023-05-24T05:21:33.519Z,425.00
2023-05-24T05:22:35.318Z,426.00
2023-05-24T05:23:35.237Z,422.00
2023-05-24T05:24:36.155Z,423.00
2023-05-24T05:25:37.046Z,422.00
2023-05-24T05:26:37.942Z,424.00
2023-05-24T05:27:38.869Z,426.00
2023-05-24T05:28:39.790Z,423.00
2023-05-24T05:29:42.342Z,425.00
2023-05-24T05:30:42.039Z,428.00
2023-05-24T05:31:43.811Z,428.00
2023-05-24T05:32:42.862Z,428.00
2023-05-24T05:33:43.821Z,427.00
2023-05-24T05:34:44.232Z,427.00
2023-05-24T05:35:45.119Z,422.00
2023-05-24T05:36:46.820Z,421.00
2023-05-24T05:37:46.733Z,421.00
2023-05-24T05:38:47.642Z,422.00
2023-05-24T05:39:48.550Z,423.00
2023-05-24T05:40:49.455Z,418.00
2023-05-24T05:41:50.398Z,425.00
2023-05-24T05:42:51.302Z,423.00
2023-05-24T05:43:52.210Z,419.00
2023-05-24T05:44:53.125Z,422.00
2023-05-24T05:45:54.096Z,415.00
2023-05-24T05:46:55.036Z,412.00
2023-05-24T05:47:55.955Z,414.00
2023-05-24T05:48:56.844Z,420.00
2023-05-24T05:49:57.766Z,422.00
2023-05-24T05:50:58.693Z,421.00
2023-05-24T05:51:59.182Z,421.00
2023-05-24T05:53:00.119Z,422.00
2023-05-24T05:54:01.031Z,424.00
2023-05-24T05:55:02.824Z,423.00
2023-05-24T05:56:02.760Z,427.00
2023-05-24T05:57:05.330Z,425.00
2023-05-24T05:58:04.213Z,422.00
2023-05-24T05:59:05.201Z,418.00
2023-05-24T06:00:06.078Z,417.00
2023-05-24T06:01:07.012Z,418.00
2023-05-24T06:02:08.011Z,416.00
2023-05-24T06:03:08.991Z,414.00
2023-05-24T06:04:09.519Z,417.00
2023-05-24T06:05:10.022Z,415.00
2023-05-24T06:06:10.943Z,410.00
2023-05-24T06:07:11.860Z,411.00
2023-05-24T06:08:12.794Z,409.00
2023-05-24T06:09:13.684Z,417.00
2023-05-24T06:10:14.627Z,417.00
2023-05-24T06:11:15.513Z,419.00
2023-05-24T06:12:16.418Z,424.00
2023-05-24T06:13:17.314Z,424.00
2023-05-24T06:14:18.237Z,420.00
2023-05-24T06:15:19.167Z,417.00
2023-05-24T06:16:20.139Z,415.00
2023-05-24T06:17:20.836Z,413.00
2023-05-24T06:18:22.978Z,412.00
2023-05-24T06:19:21.886Z,417.00
2023-05-24T06:20:22.870Z,416.00
2023-05-24T06:21:23.262Z,410.00
2023-05-24T06:22:24.171Z,410.00
2023-05-24T06:23:25.116Z,409.00
2023-05-24T06:24:26.060Z,411.00
2023-05-24T06:25:27.977Z,412.00
2023-05-24T06:26:27.868Z,415.00
2023-05-24T06:27:28.756Z,415.00
2023-05-24T06:28:29.675Z,416.00
2023-05-24T06:29:30.641Z,415.00
2023-05-24T06:30:31.702Z,414.00
2023-05-24T06:31:32.264Z,414.00
2023-05-24T06:32:33.254Z,414.00
2023-05-24T06:33:35.729Z,415.00
2023-05-24T06:34:34.923Z,412.00
2023-05-24T06:35:35.863Z,412.00
2023-05-24T06:36:37.316Z,413.00
2023-05-24T06:37:37.229Z,414.00
2023-05-24T06:38:38.140Z,412.00
2023-05-24T06:39:39.046Z,415.00
2023-05-24T06:40:40.053Z,413.00
2023-05-24T06:41:40.542Z,411.00
2023-05-24T06:42:41.597Z,416.00
2023-05-24T06:43:41.975Z,410.00
2023-05-24T06:44:42.904Z,411.00
2023-05-24T06:45:43.810Z,411.00
2023-05-24T06:46:44.729Z,411.00
2023-05-24T06:47:45.678Z,411.00
2023-05-24T06:48:46.787Z,409.00
2023-05-24T06:49:47.206Z,412.00
2023-05-24T06:50:48.366Z,418.00
2023-05-24T06:51:48.780Z,409.00
2023-05-24T06:52:49.788Z,414.00
2023-05-24T06:53:50.638Z,414.00
2023-05-24T06:54:51.537Z,413.00
2023-05-24T06:55:52.437Z,413.00
2023-05-24T06:56:53.381Z,410.00
2023-05-24T06:57:54.287Z,412.00
2023-05-24T06:58:55.200Z,408.00
2023-05-24T06:59:56.823Z,410.00
2023-05-24T07:00:56.762Z,410.00
2023-05-24T07:01:58.890Z,410.00
2023-05-24T07:02:58.458Z,413.00
2023-05-24T07:03:59.326Z,409.00
2023-05-24T07:05:00.279Z,407.00
2023-05-24T07:06:01.223Z,407.00
2023-05-24T07:07:02.142Z,409.00
2023-05-24T07:08:03.827Z,411.00
2023-05-24T07:09:03.717Z,415.00
2023-05-24T07:10:04.637Z,412.00
2023-05-24T07:11:05.573Z,408.00
2023-05-24T07:12:08.936Z,412.00
2023-05-24T07:13:06.996Z,410.00
2023-05-24T07:14:07.890Z,409.00
2023-05-24T07:15:08.832Z,409.00
2023-05-24T07:16:09.736Z,415.00
2023-05-24T07:17:10.688Z,411.00
2023-05-24T07:18:11.577Z,412.00
2023-05-24T07:19:12.501Z,408.00
2023-05-24T07:20:13.450Z,412.00
2023-05-24T07:21:14.336Z,409.00
2023-05-24T07:22:15.215Z,412.00
2023-05-24T07:23:16.116Z,409.00
2023-05-24T07:24:17.030Z,406.00
2023-05-24T07:25:17.996Z,411.00
2023-05-24T07:26:18.896Z,411.00
2023-05-24T07:27:19.799Z,411.00
2023-05-24T07:28:20.719Z,412.00
2023-05-24T07:29:21.645Z,403.00
2023-05-24T07:30:31.792Z,403.00
2023-05-24T07:31:24.347Z,404.00
2023-05-24T07:32:24.362Z,407.00
2023-05-24T07:33:24.800Z,408.00
2023-05-24T07:34:25.716Z,402.00
2023-05-24T07:35:26.633Z,401.00
2023-05-24T07:36:27.560Z,402.00
2023-05-24T07:37:29.323Z,405.00
2023-05-24T07:38:29.221Z,408.00
2023-05-24T07:39:30.443Z,406.00
2023-05-24T07:40:31.830Z,406.00
2023-05-24T07:41:31.735Z,402.00
2023-05-24T07:42:32.636Z,399.00
2023-05-24T07:43:33.626Z,399.00
2023-05-24T07:44:34.505Z,399.00
2023-05-24T07:45:35.514Z,400.00
2023-05-24T07:46:36.409Z,401.00
2023-05-24T07:47:37.855Z,400.00
2023-05-24T07:48:37.878Z,400.00
2023-05-24T07:49:38.783Z,403.00
2023-05-24T07:50:39.731Z,402.00
2023-05-24T07:51:40.661Z,401.00
2023-05-24T07:52:41.539Z,401.00
2023-05-24T07:53:42.441Z,405.00
2023-05-24T07:54:44.400Z,407.00
2023-05-24T07:55:44.533Z,403.00
2023-05-24T07:56:45.032Z,402.00
2023-05-24T07:57:46.005Z,399.00
2023-05-24T07:58:46.988Z,397.00
2023-05-24T07:59:47.465Z,401.00
2023-05-24T08:00:48.383Z,397.00
2023-05-24T08:01:49.264Z,397.00
2023-05-24T08:02:50.274Z,403.00
2023-05-24T08:03:50.791Z,399.00
2023-05-24T08:04:51.850Z,400.00
2023-05-24T08:05:51.777Z,397.00
2023-05-24T08:06:52.906Z,401.00
2023-05-24T08:07:53.359Z,403.00
2023-05-24T08:08:54.231Z,405.00
2023-05-24T08:09:55.129Z,404.00
2023-05-24T08:10:56.047Z,405.00
2023-05-24T08:11:57.072Z,405.00
2023-05-24T08:12:57.482Z,404.00
2023-05-24T08:13:58.376Z,403.00
2023-05-24T08:14:59.268Z,401.00
2023-05-24T08:16:00.236Z,408.00
2023-05-24T08:17:01.148Z,400.00
2023-05-24T08:18:02.084Z,404.00
2023-05-24T08:19:02.942Z,407.00
2023-05-24T08:20:03.971Z,408.00
2023-05-24T08:21:04.411Z,407.00
2023-05-24T08:22:05.514Z,406.00
2023-05-24T08:23:05.923Z,409.00
2023-05-24T08:24:09.288Z,409.00
2023-05-24T08:25:07.576Z,405.00
2023-05-24T08:26:08.499Z,400.00
2023-05-24T08:27:09.424Z,401.00
2023-05-24T08:28:10.343Z,401.00
2023-05-24T08:29:10.998Z,400.00
2023-05-24T08:30:11.953Z,407.00
2023-05-24T08:31:12.933Z,407.00
2023-05-24T08:32:14.006Z,400.00
2023-05-24T08:33:15.359Z,403.00
2023-05-24T08:34:15.268Z,406.00
2023-05-24T08:35:20.315Z,405.00
2023-05-24T08:36:17.981Z,402.00
2023-05-24T08:37:17.926Z,404.00
2023-05-24T08:38:19.340Z,408.00
2023-05-24T08:39:19.767Z,410.00
2023-05-24T08:40:20.822Z,407.00
2023-05-24T08:41:21.290Z,405.00
2023-05-24T08:42:22.199Z,406.00
2023-05-24T08:43:23.104Z,410.00
2023-05-24T08:44:24.055Z,411.00
2023-05-24T08:45:24.968Z,407.00
2023-05-24T08:46:25.928Z,402.00
2023-05-24T08:47:26.908Z,405.00
2023-05-24T08:48:28.557Z,409.00
2023-05-24T08:49:32.127Z,405.00
2023-05-24T08:50:29.449Z,406.00
2023-05-24T08:51:30.847Z,409.00
2023-05-24T08:52:31.341Z,411.00
2023-05-24T08:53:32.258Z,406.00
2023-05-24T08:54:32.789Z,408.00
2023-05-24T08:55:36.459Z,408.00
2023-05-24T08:56:34.405Z,405.00
2023-05-24T08:57:35.862Z,401.00
2023-05-24T08:58:36.282Z,398.00
2023-05-24T08:59:37.222Z,399.00
2023-05-24T09:00:38.135Z,404.00
2023-05-24T09:01:39.090Z,403.00
2023-05-24T09:02:40.043Z,399.00
2023-05-24T09:03:41.153Z,397.00
2023-05-24T09:04:41.607Z,403.00
2023-05-24T09:05:42.677Z,404.00
2023-05-24T09:06:43.184Z,403.00
2023-05-24T09:07:44.139Z,405.00
2023-05-24T09:08:45.044Z,401.00
2023-05-24T09:09:45.987Z,397.00
2023-05-24T09:10:54.838Z,398.00
2023-05-24T09:11:48.760Z,399.00
2023-05-24T09:12:48.658Z,400.00
2023-05-24T09:13:50.360Z,397.00
2023-05-24T09:14:50.260Z,396.00
2023-05-24T09:15:51.278Z,395.00
2023-05-24T09:16:51.720Z,406.00
2023-05-24T09:17:52.733Z,408.00
2023-05-24T09:18:53.113Z,404.00
2023-05-24T09:19:54.036Z,400.00
2023-05-24T09:20:54.957Z,403.00
2023-05-24T09:21:56.009Z,405.00
2023-05-24T09:22:56.392Z,404.00
2023-05-24T09:23:57.285Z,405.00
2023-05-24T09:24:58.220Z,407.00
2023-05-24T09:25:59.117Z,401.00
2023-05-24T09:27:00.138Z,402.00
2023-05-24T09:28:00.581Z,406.00
2023-05-24T09:29:01.498Z,405.00
2023-05-24T09:30:02.392Z,404.00
2023-05-24T09:31:10.396Z,407.00
2023-05-24T09:32:04.383Z,407.00
2023-05-24T09:33:04.885Z,409.00
2023-05-24T09:34:05.371Z,408.00
2023-05-24T09:35:06.302Z,410.00
2023-05-24T09:36:07.220Z,404.00
2023-05-24T09:37:08.131Z,406.00
2023-05-24T09:38:09.073Z,406.00
2023-05-24T09:39:09.993Z,403.00
2023-05-24T09:40:10.971Z,409.00
2023-05-24T09:41:11.879Z,407.00
2023-05-24T09:42:12.775Z,407.00
2023-05-24T09:43:13.737Z,406.00
2023-05-24T09:44:14.650Z,407.00
2023-05-24T09:45:15.605Z,407.00
2023-05-24T09:46:16.528Z,406.00
2023-05-24T09:47:17.499Z,407.00
2023-05-24T09:48:17.951Z,400.00
2023-05-24T09:49:18.877Z,400.00
2023-05-24T09:50:19.841Z,401.00
2023-05-24T09:51:20.750Z,404.00
2023-05-24T09:52:21.629Z,404.00
2023-05-24T09:53:22.165Z,406.00
2023-05-24T09:54:23.151Z,404.00
2023-05-24T09:55:23.577Z,402.00
2023-05-24T09:56:24.381Z,404.00
2023-05-24T09:57:25.287Z,403.00
2023-05-24T09:58:26.236Z,404.00
2023-05-24T09:59:26.907Z,433.00
2023-05-24T10:00:27.808Z,467.00
2023-05-24T10:01:29.458Z,431.00
2023-05-24T10:02:38.168Z,399.00
2023-05-24T10:03:31.252Z,400.00
2023-05-24T10:04:30.953Z,401.00
2023-05-24T10:05:31.450Z,399.00
2023-05-24T10:06:31.862Z,398.00
2023-05-24T10:07:33.364Z,400.00
2023-05-24T10:08:33.361Z,402.00
2023-05-24T10:09:34.223Z,402.00
2023-05-24T10:10:35.115Z,402.00
2023-05-24T10:11:36.104Z,406.00
2023-05-24T10:12:36.971Z,397.00
2023-05-24T10:13:37.979Z,399.00
2023-05-24T10:14:38.877Z,400.00
2023-05-24T10:15:41.317Z,405.00
2023-05-24T10:16:40.763Z,408.00
2023-05-24T10:17:41.706Z,404.00
2023-05-24T10:18:42.578Z,407.00
2023-05-24T10:19:43.478Z,407.00
2023-05-24T10:20:44.853Z,408.00
2023-05-24T10:21:45.129Z,399.00
2023-05-24T10:22:45.613Z,401.00
2023-05-24T10:23:46.809Z,405.00
2023-05-24T10:24:47.872Z,406.00
2023-05-24T10:25:47.782Z,403.00
2023-05-24T10:26:48.745Z,402.00
2023-05-24T10:27:49.682Z,397.00
2023-05-24T10:28:51.416Z,395.00
2023-05-24T10:29:51.371Z,400.00
2023-05-24T10:30:51.953Z,403.00
2023-05-24T10:31:52.880Z,398.00
2023-05-24T10:32:53.868Z,402.00
2023-05-24T10:34:01.397Z,403.00
2023-05-24T10:34:56.575Z,406.00
2023-05-24T10:35:57.056Z,402.00
2023-05-24T10:36:58.426Z,404.00
2023-05-24T10:37:58.352Z,405.00
2023-05-24T10:38:59.308Z,401.00
2023-05-24T10:40:00.220Z,401.00
2023-05-24T10:41:01.129Z,404.00
2023-05-24T10:42:02.042Z,403.00
2023-05-24T10:43:03.991Z,406.00
2023-05-24T10:45:04.720Z,404.00
2023-05-24T10:46:05.629Z,401.00
2023-05-24T10:47:06.535Z,402.00
2023-05-24T10:48:07.479Z,402.00
2023-05-24T10:49:08.306Z,402.00
2023-05-24T10:50:09.248Z,403.00
2023-05-24T10:51:10.215Z,404.00
2023-05-24T10:52:11.141Z,402.00
2023-05-24T10:53:12.034Z,402.00
2023-05-24T10:54:12.988Z,407.00
2023-05-24T10:55:13.898Z,405.00
2023-05-24T10:56:14.827Z,404.00
2023-05-24T10:57:15.708Z,404.00
2023-05-24T10:58:16.612Z,403.00
2023-05-24T10:59:17.541Z,406.00
2023-05-24T11:00:30.586Z,407.00
2023-05-24T11:01:20.375Z,407.00
2023-05-24T11:02:19.825Z,406.00
2023-05-24T11:03:20.685Z,407.00
2023-05-24T11:04:21.639Z,407.00
2023-05-24T11:05:22.610Z,406.00
2023-05-24T11:06:23.572Z,403.00
2023-05-24T11:07:24.484Z,401.00
2023-05-24T11:08:26.449Z,401.00
2023-05-24T11:09:26.455Z,402.00
2023-05-24T11:10:27.325Z,402.00
2023-05-24T11:11:31.346Z,400.00
2023-05-24T11:12:29.112Z,399.00
2023-05-24T11:13:30.032Z,400.00
2023-05-24T11:14:31.111Z,402.00
2023-05-24T11:15:31.536Z,405.00
2023-05-24T11:16:32.513Z,407.00
2023-05-24T11:17:33.407Z,451.00
2023-05-24T11:18:34.333Z,460.00
2023-05-24T11:19:35.231Z,456.00
2023-05-24T11:20:36.159Z,447.00
2023-05-24T11:21:37.083Z,437.00
2023-05-24T11:22:38.074Z,430.00
2023-05-24T11:23:38.992Z,431.00
2023-05-24T11:24:40.019Z,401.00
2023-05-24T11:25:40.905Z,397.00
2023-05-24T11:26:41.810Z,381.00
2023-05-24T11:27:42.758Z,382.00
2023-05-24T11:28:43.730Z,377.00
2023-05-24T11:29:44.641Z,404.00
2023-05-24T11:30:45.612Z,391.00
2023-05-24T11:31:46.633Z,399.00
2023-05-24T11:32:47.301Z,430.00
2023-05-24T11:33:47.715Z,418.00
2023-05-24T11:34:48.644Z,417.00
2023-05-24T11:35:49.593Z,418.00
2023-05-24T11:36:50.534Z,449.00
2023-05-24T11:37:51.461Z,418.00
2023-05-24T11:38:52.469Z,382.00
2023-05-24T11:39:53.446Z,320.00
2023-05-24T11:40:54.316Z,404.00
2023-05-24T11:41:55.232Z,302.00
2023-05-24T11:42:56.133Z,391.00
2023-05-24T11:43:57.041Z,423.00
2023-05-24T11:44:57.956Z,411.00
2023-05-24T11:45:58.950Z,398.00
2023-05-24T11:47:00.346Z,389.00
2023-05-24T11:48:00.317Z,376.00
2023-05-24T11:49:01.186Z,371.00
2023-05-24T11:50:02.157Z,370.00
2023-05-24T11:51:03.035Z,375.00
2023-05-24T11:52:03.951Z,384.00
2023-05-24T11:53:04.847Z,380.00
2023-05-24T11:54:05.750Z,382.00
2023-05-24T11:55:06.729Z,384.00
2023-05-24T11:56:08.404Z,387.00
2023-05-24T11:57:08.312Z,390.00
2023-05-24T11:58:09.213Z,391.00
2023-05-24T11:59:10.108Z,394.00
2023-05-24T12:00:11.063Z,392.00
2023-05-24T12:01:11.958Z,389.00
2023-05-24T12:02:12.860Z,392.00
2023-05-24T12:03:13.901Z,393.00
2023-05-24T12:04:15.499Z,390.00
2023-05-24T12:05:14.947Z,390.00
2023-05-24T12:06:15.905Z,391.00
2023-05-24T12:07:16.804Z,389.00
2023-05-24T12:08:17.689Z,396.00
2023-05-24T12:09:18.610Z,391.00
2023-05-24T12:10:22.182Z,397.00
2023-05-24T12:11:20.076Z,398.00
2023-05-24T12:12:27.101Z,394.00
2023-05-24T12:13:22.770Z,391.00
2023-05-24T12:14:22.689Z,394.00
2023-05-24T12:15:23.621Z,383.00
2023-05-24T12:16:24.565Z,390.00
2023-05-24T12:17:25.530Z,395.00
2023-05-24T12:18:26.725Z,395.00
2023-05-24T12:20:28.017Z,394.00
2023-05-24T12:21:28.924Z,391.00
2023-05-24T12:22:29.820Z,395.00
2023-05-24T12:23:30.750Z,389.00
2023-05-24T12:24:32.527Z,390.00
2023-05-24T12:25:32.556Z,395.00
2023-05-24T12:26:33.504Z,395.00
2023-05-24T12:27:34.389Z,395.00
2023-05-24T12:28:35.397Z,391.00
2023-05-24T12:29:35.793Z,396.00
2023-05-24T12:30:36.818Z,396.00
2023-05-24T12:31:37.550Z,397.00
2023-05-24T12:32:38.498Z,396.00
2023-05-24T12:33:39.361Z,394.00
2023-05-24T12:34:40.256Z,391.00
2023-05-24T12:35:41.189Z,391.00
2023-05-24T12:36:42.113Z,393.00
2023-05-24T12:37:43.048Z,390.00
2023-05-24T12:38:43.950Z,391.00
2023-05-24T12:39:45.302Z,392.00
2023-05-24T12:40:51.855Z,392.00
2023-05-24T12:41:47.577Z,392.00
2023-05-24T12:42:47.524Z,393.00
2023-05-24T12:43:48.464Z,395.00
2023-05-24T12:44:49.363Z,397.00
2023-05-24T12:45:52.865Z,395.00
2023-05-24T12:46:51.103Z,397.00
2023-05-24T12:47:52.065Z,396.00
2023-05-24T12:48:53.001Z,399.00
2023-05-24T12:49:53.949Z,398.00
2023-05-24T12:50:54.901Z,388.00
2023-05-24T12:51:55.845Z,388.00
2023-05-24T12:52:56.739Z,396.00
2023-05-24T12:53:58.392Z,392.00
2023-05-24T12:54:58.907Z,399.00
2023-05-24T12:55:58.980Z,401.00
2023-05-24T12:56:59.362Z,403.00
2023-05-24T12:58:00.254Z,401.00
2023-05-24T12:59:01.158Z,402.00
2023-05-24T13:00:02.082Z,399.00
2023-05-24T13:01:03.054Z,402.00
2023-05-24T13:02:03.914Z,401.00
2023-05-24T13:03:04.887Z,398.00
2023-05-24T13:04:05.790Z,397.00
2023-05-24T13:05:06.779Z,400.00
2023-05-24T13:06:07.658Z,399.00
2023-05-24T13:07:08.566Z,394.00
2023-05-24T13:08:09.458Z,394.00
2023-05-24T13:09:10.387Z,397.00
2023-05-24T13:10:11.328Z,394.00
2023-05-24T13:11:12.258Z,395.00
2023-05-24T13:12:13.136Z,393.00
2023-05-24T13:13:14.908Z,391.00
2023-05-24T13:14:14.825Z,395.00
2023-05-24T13:15:15.756Z,397.00
2023-05-24T13:16:16.723Z,395.00
2023-05-24T13:17:17.714Z,395.00
2023-05-24T13:18:18.132Z,396.00
2023-05-24T13:19:19.092Z,392.00
2023-05-24T13:20:20.063Z,392.00
2023-05-24T13:21:20.953Z,397.00
2023-05-24T13:22:21.832Z,401.00
2023-05-24T13:23:22.618Z,399.00
2023-05-24T13:24:23.551Z,395.00
2023-05-24T13:25:24.453Z,399.00
2023-05-24T13:26:25.413Z,395.00
2023-05-24T13:27:26.277Z,397.00
2023-05-24T13:28:27.184Z,394.00
2023-05-24T13:29:39.271Z,397.00
2023-05-24T13:30:30.926Z,400.00
2023-05-24T13:31:29.935Z,400.00
2023-05-24T13:32:30.386Z,399.00
2023-05-24T13:33:32.757Z,398.00
2023-05-24T13:34:32.240Z,397.00
2023-05-24T13:35:33.130Z,398.00
2023-05-24T13:36:34.053Z,398.00
2023-05-24T13:37:34.954Z,399.00
2023-05-24T13:38:35.890Z,403.00
2023-05-24T13:39:36.786Z,401.00
2023-05-24T13:40:40.031Z,401.00
2023-05-24T13:41:38.394Z,398.00
2023-05-24T13:42:39.365Z,396.00
2023-05-24T13:43:40.287Z,396.00
2023-05-24T13:44:41.182Z,398.00
2023-05-24T13:45:42.075Z,397.00
2023-05-24T13:46:43.083Z,398.00
2023-05-24T13:47:43.858Z,400.00
2023-05-24T13:48:44.404Z,401.00
2023-05-24T13:49:45.309Z,400.00
2023-05-24T13:50:46.209Z,400.00
2023-05-24T13:51:47.917Z,397.00
2023-05-24T13:52:47.841Z,400.00
2023-05-24T13:53:48.755Z,397.00
2023-05-24T13:54:49.667Z,401.00
2023-05-24T13:55:50.590Z,398.00
2023-05-24T13:56:51.645Z,399.00
2023-05-24T13:57:52.704Z,397.00
2023-05-24T13:58:53.082Z,398.00
2023-05-24T13:59:53.972Z,408.00
2023-05-24T14:00:54.897Z,411.00
2023-05-24T14:01:55.843Z,409.00
2023-05-24T14:02:56.791Z,408.00
2023-05-24T14:03:57.687Z,409.00
2023-05-24T14:05:13.592Z,405.00
2023-05-24T14:06:00.472Z,406.00
2023-05-24T14:07:00.373Z,408.00
2023-05-24T14:08:01.341Z,407.00
2023-05-24T14:09:02.242Z,403.00
2023-05-24T14:10:03.245Z,402.00
2023-05-24T14:11:04.940Z,407.00
2023-05-24T14:12:04.333Z,411.00
2023-05-24T14:13:23.156Z,410.00
2023-05-24T14:14:57.933Z,408.00
2023-05-24T14:15:07.804Z,406.00
2023-05-24T14:16:08.840Z,408.00
2023-05-24T14:17:08.345Z,408.00
2023-05-24T14:18:09.319Z,408.00
2023-05-24T14:19:10.260Z,405.00
2023-05-24T14:20:11.305Z,408.00
2023-05-24T14:21:11.733Z,414.00
2023-05-24T14:22:12.668Z,420.00
2023-05-24T14:23:13.580Z,417.00
2023-05-24T14:24:14.473Z,421.00
2023-05-24T14:25:15.433Z,413.00
2023-05-24T14:26:16.333Z,412.00
2023-05-24T14:27:17.311Z,411.00
2023-05-24T14:28:18.191Z,407.00
2023-05-24T14:29:19.104Z,404.00
2023-05-24T14:30:20.053Z,402.00
2023-05-24T14:31:20.968Z,405.00
2023-05-24T14:32:21.904Z,407.00
2023-05-24T14:33:22.860Z,406.00
2023-05-24T14:34:24.013Z,413.00
2023-05-24T14:35:24.420Z,405.00
2023-05-24T14:36:25.319Z,405.00
2023-05-24T14:37:26.238Z,409.00
2023-05-24T14:38:27.134Z,407.00
2023-05-24T14:39:28.066Z,408.00
2023-05-24T14:40:29.220Z,404.00
2023-05-24T14:41:29.600Z,408.00
2023-05-24T14:42:30.514Z,403.00
2023-05-24T14:43:31.443Z,403.00
2023-05-24T14:44:32.392Z,406.00
2023-05-24T14:45:33.403Z,406.00
2023-05-24T14:46:34.006Z,406.00
2023-05-24T14:47:34.421Z,404.00
2023-05-24T14:48:35.351Z,404.00
2023-05-24T14:49:36.245Z,402.00
2023-05-24T14:50:37.157Z,404.00
2023-05-24T14:51:38.094Z,407.00
2023-05-24T14:52:39.017Z,405.00
2023-05-24T14:53:40.015Z,404.00
2023-05-24T14:54:40.902Z,409.00
2023-05-24T14:55:42.802Z,406.00
2023-05-24T14:56:42.476Z,408.00
2023-05-24T14:57:43.450Z,409.00
2023-05-24T14:58:44.922Z,407.00
2023-05-24T14:59:44.834Z,407.00
2023-05-24T15:00:45.857Z,408.00
2023-05-24T15:01:46.374Z,408.00
2023-05-24T15:02:47.311Z,403.00
2023-05-24T15:03:48.296Z,409.00
2023-05-24T15:04:49.217Z,405.00
2023-05-24T15:05:50.111Z,403.00
2023-05-24T15:06:51.049Z,406.00
2023-05-24T15:07:51.984Z,407.00
2023-05-24T15:08:52.921Z,407.00
2023-05-24T15:09:53.846Z,405.00
2023-05-24T15:10:56.172Z,411.00
2023-05-24T15:11:55.464Z,406.00
2023-05-24T15:12:56.414Z,406.00